Jet, Oklahoma
Current Conditions -  °F | °C
As of 11:56 AM on Wednesday 28 Jan 2015 (Local Time) from KEND Reporting Station
Broken Clouds Broken Clouds  
Wind Chill: 72°   Ceiling: 25000
Heat Index: 72°   Visibility: 10mi
Dew Point: 39°   Wind: 18mph
Humidity: 31%   Direction: 210°SSW
Pressure: 29.88"   Gusts: NA
Location:  36.67°N, 98.18°W
Report Text: KEND 281756Z 21016KT 10SM BKN250 22/04 A2988 RMK AO2A SLP114 58017
Loading
Personal Weather Stations






























Interactive Weather Map New forecast layout! Learn more

10-Day Weather Forecast

Advertisements
Track Severe Weather on mobile